createdAt,value
2022-12-08T00:01:41.987Z,23.28
2022-12-08T00:04:10.214Z,23.61
2022-12-08T00:06:57.148Z,23.73
2022-12-08T00:09:27.194Z,23.30
2022-12-08T00:11:59.069Z,23.76
2022-12-08T00:14:28.967Z,23.43
2022-12-08T00:16:56.728Z,23.10
2022-12-08T00:19:24.950Z,22.66
2022-12-08T00:21:52.942Z,23.09
2022-12-08T00:24:20.664Z,23.07
2022-12-08T00:26:48.489Z,23.65
2022-12-08T00:29:17.667Z,23.58
2022-12-08T00:31:45.289Z,23.17
2022-12-08T00:34:13.238Z,23.65
2022-12-08T00:37:05.523Z,23.02
2022-12-08T00:39:33.071Z,22.86
2022-12-08T00:42:12.421Z,23.15
2022-12-08T00:44:40.561Z,23.38
2022-12-08T00:47:07.872Z,23.12
2022-12-08T00:49:35.213Z,23.33
2022-12-08T00:52:02.546Z,23.32
2022-12-08T00:54:33.949Z,23.48
2022-12-08T00:57:01.266Z,23.24
2022-12-08T00:59:28.792Z,23.25
2022-12-08T01:01:56.163Z,23.48
2022-12-08T01:04:24.583Z,23.43
2022-12-08T01:09:35.883Z,23.48
2022-12-08T01:12:03.284Z,23.32
2022-12-08T01:14:30.845Z,23.56
2022-12-08T01:16:58.207Z,23.21
2022-12-08T01:19:25.845Z,23.49
2022-12-08T01:21:53.099Z,23.53
2022-12-08T01:24:45.717Z,23.48
2022-12-08T01:27:15.374Z,23.58
2022-12-08T01:29:42.693Z,22.97
2022-12-08T01:32:10.062Z,23.60
2022-12-08T01:34:37.639Z,23.34
2022-12-08T01:37:04.929Z,23.35
2022-12-08T01:39:32.387Z,23.46
2022-12-08T01:41:59.693Z,22.81
2022-12-08T01:44:26.996Z,23.10
2022-12-08T01:46:54.527Z,23.40
2022-12-08T01:49:27.479Z,23.43
2022-12-08T01:52:13.300Z,23.28
2022-12-08T01:54:44.198Z,22.89
2022-12-08T01:57:18.704Z,23.02
2022-12-08T01:59:48.732Z,23.30
2022-12-08T02:02:16.454Z,23.23
2022-12-08T02:04:43.943Z,23.66
2022-12-08T02:07:12.462Z,23.19
2022-12-08T02:09:40.924Z,23.17
2022-12-08T02:12:09.103Z,23.11
2022-12-08T02:14:38.634Z,22.80
2022-12-08T02:17:16.912Z,23.38
2022-12-08T02:19:47.970Z,22.97
2022-12-08T02:22:19.274Z,23.05
2022-12-08T02:25:12.784Z,23.36
2022-12-08T02:27:49.436Z,22.53
2022-12-08T02:30:30.865Z,22.83
2022-12-08T02:32:58.224Z,23.54
2022-12-08T02:35:50.822Z,23.20
2022-12-08T02:38:30.434Z,23.35
2022-12-08T02:41:16.388Z,23.37
2022-12-08T02:43:52.933Z,23.80
2022-12-08T02:46:35.760Z,23.20
2022-12-08T02:49:08.493Z,23.42
2022-12-08T02:51:35.789Z,23.55
2022-12-08T02:54:03.770Z,23.04
2022-12-08T02:56:46.642Z,23.16
2022-12-08T02:59:25.902Z,23.19
2022-12-08T03:02:02.440Z,23.48
2022-12-08T03:04:29.768Z,22.96
2022-12-08T03:07:23.077Z,23.34
2022-12-08T03:09:57.714Z,23.31
2022-12-08T03:12:44.891Z,23.27
2022-12-08T03:15:15.468Z,22.83
2022-12-08T03:17:44.819Z,22.80
2022-12-08T03:20:15.612Z,23.03
2022-12-08T03:22:44.561Z,23.26
2022-12-08T03:25:14.132Z,22.98
2022-12-08T03:27:41.668Z,23.66
2022-12-08T03:30:09.756Z,22.81
2022-12-08T03:32:47.640Z,23.28
2022-12-08T03:35:16.516Z,23.43
2022-12-08T03:37:43.913Z,23.59
2022-12-08T03:40:13.505Z,23.32
2022-12-08T03:42:41.211Z,23.09
2022-12-08T03:45:09.633Z,22.89
2022-12-08T03:47:37.151Z,23.06
2022-12-08T03:50:05.262Z,22.70
2022-12-08T03:52:32.741Z,23.05
2022-12-08T03:55:00.033Z,23.54
2022-12-08T03:57:27.412Z,23.29
2022-12-08T03:59:54.582Z,23.29
2022-12-08T04:02:22.109Z,23.28
2022-12-08T04:04:49.467Z,22.74
2022-12-08T04:07:17.089Z,22.79
2022-12-08T04:09:45.576Z,23.69
2022-12-08T04:12:12.873Z,22.79
2022-12-08T04:14:40.106Z,23.93
2022-12-08T04:17:07.490Z,23.55
2022-12-08T04:19:34.827Z,23.71
2022-12-08T04:22:02.124Z,23.56
2022-12-08T04:24:29.426Z,23.27
2022-12-08T04:26:56.807Z,22.96
2022-12-08T04:29:24.115Z,23.64
2022-12-08T04:31:51.525Z,23.09
2022-12-08T04:34:18.833Z,23.01
2022-12-08T04:36:46.216Z,23.15
2022-12-08T04:39:13.618Z,23.18
2022-12-08T04:41:41.054Z,23.32
2022-12-08T04:44:08.294Z,23.27
2022-12-08T04:46:40.246Z,23.23
2022-12-08T04:49:10.761Z,22.74
2022-12-08T04:51:37.989Z,22.96
2022-12-08T04:54:05.762Z,23.14
2022-12-08T04:56:33.176Z,22.78
2022-12-08T04:59:00.535Z,22.89
2022-12-08T05:01:27.809Z,23.63
2022-12-08T05:03:55.413Z,23.08
2022-12-08T05:06:22.720Z,22.90
2022-12-08T05:08:50.128Z,23.39
2022-12-08T05:11:17.438Z,23.00
2022-12-08T05:13:44.818Z,22.68
2022-12-08T05:16:13.667Z,22.56
2022-12-08T05:18:41.786Z,23.19
2022-12-08T05:21:10.207Z,23.17
2022-12-08T05:23:37.465Z,22.67
2022-12-08T05:26:05.015Z,23.18
2022-12-08T05:28:47.611Z,23.49
2022-12-08T05:31:15.777Z,23.54
2022-12-08T05:33:43.850Z,23.03
2022-12-08T05:36:12.735Z,22.79
2022-12-08T05:38:40.027Z,23.06
2022-12-08T05:41:07.667Z,23.39
2022-12-08T05:43:34.914Z,23.12
2022-12-08T05:46:02.429Z,22.77
2022-12-08T05:48:29.843Z,23.34
2022-12-08T05:50:57.107Z,22.96
2022-12-08T05:53:24.485Z,22.98
2022-12-08T05:55:51.749Z,22.72
2022-12-08T05:58:19.919Z,22.54
2022-12-08T06:00:47.712Z,23.02
2022-12-08T06:03:16.539Z,22.71
2022-12-08T06:05:45.076Z,22.42
2022-12-08T06:08:12.842Z,22.50
2022-12-08T06:10:41.053Z,23.09
2022-12-08T06:13:09.240Z,22.65
2022-12-08T06:15:37.272Z,22.73
2022-12-08T06:18:04.864Z,22.58
2022-12-08T06:20:32.358Z,23.01
2022-12-08T06:22:59.729Z,22.77
2022-12-08T06:25:27.119Z,23.12
2022-12-08T06:27:54.369Z,22.79
2022-12-08T06:30:21.806Z,22.94
2022-12-08T06:32:49.384Z,22.92
2022-12-08T06:35:16.770Z,23.08
2022-12-08T06:37:44.033Z,23.45
2022-12-08T06:40:11.406Z,22.62
2022-12-08T06:42:44.587Z,22.49
2022-12-08T06:45:13.037Z,22.47
2022-12-08T06:47:40.316Z,22.70
2022-12-08T06:50:08.883Z,22.43
2022-12-08T06:52:45.636Z,22.71
2022-12-08T06:55:35.515Z,23.73
2022-12-08T06:58:04.222Z,22.85
2022-12-08T07:00:31.543Z,22.86
2022-12-08T07:02:58.919Z,22.88
2022-12-08T07:05:26.285Z,22.66
2022-12-08T07:07:53.731Z,22.51
2022-12-08T07:10:20.987Z,22.73
2022-12-08T07:12:48.286Z,23.16
2022-12-08T07:15:16.358Z,22.66
2022-12-08T07:17:43.725Z,23.29
2022-12-08T07:20:11.211Z,23.07
2022-12-08T07:22:38.545Z,22.57
2022-12-08T07:25:06.100Z,22.87
2022-12-08T07:27:33.514Z,22.30
2022-12-08T07:30:00.787Z,22.76
2022-12-08T07:32:28.092Z,23.27
2022-12-08T07:34:55.607Z,22.95
2022-12-08T07:37:23.142Z,22.92
2022-12-08T07:39:50.314Z,22.71
2022-12-08T07:42:17.636Z,23.54
2022-12-08T07:44:47.209Z,22.86
2022-12-08T07:47:14.562Z,22.71
2022-12-08T07:49:41.793Z,22.69
2022-12-08T07:52:09.122Z,22.42
2022-12-08T07:54:36.502Z,22.83
2022-12-08T07:57:06.126Z,23.32
2022-12-08T07:59:33.452Z,23.15
2022-12-08T08:02:22.803Z,23.11
2022-12-08T08:04:51.360Z,23.53
2022-12-08T08:07:18.697Z,23.11
2022-12-08T08:10:11.807Z,23.42
2022-12-08T08:12:39.117Z,23.31
2022-12-08T08:15:07.972Z,23.40
2022-12-08T08:17:36.536Z,23.06
2022-12-08T08:20:07.314Z,22.69
2022-12-08T08:22:35.383Z,23.28
2022-12-08T08:25:02.747Z,22.49
2022-12-08T08:27:30.078Z,22.54
2022-12-08T08:29:57.297Z,22.59
2022-12-08T08:32:24.815Z,22.94
2022-12-08T08:34:52.184Z,22.92
2022-12-08T08:37:19.802Z,23.05
2022-12-08T08:39:47.195Z,22.19
2022-12-08T08:42:14.495Z,22.78
2022-12-08T08:44:41.787Z,22.33
2022-12-08T08:47:09.295Z,22.67
2022-12-08T08:49:36.657Z,23.25
2022-12-08T08:52:05.064Z,23.23
2022-12-08T08:54:32.330Z,22.78
2022-12-08T08:57:00.682Z,23.06
2022-12-08T08:59:28.775Z,23.12
2022-12-08T09:01:56.343Z,22.56
2022-12-08T09:04:24.170Z,22.90
2022-12-08T09:06:51.582Z,23.07
2022-12-08T09:09:18.904Z,22.68
2022-12-08T09:11:46.155Z,22.92
2022-12-08T09:14:14.894Z,23.18
2022-12-08T09:16:42.851Z,22.53
2022-12-08T09:19:10.104Z,22.84
2022-12-08T09:21:37.416Z,23.18
2022-12-08T09:24:04.877Z,23.09
2022-12-08T09:26:33.419Z,23.50
2022-12-08T09:29:00.823Z,23.39
2022-12-08T09:31:28.313Z,22.96
2022-12-08T09:33:55.675Z,22.79
2022-12-08T09:36:23.141Z,23.01
2022-12-08T09:38:53.680Z,23.07
2022-12-08T09:41:44.798Z,22.77
2022-12-08T09:44:19.163Z,23.29
2022-12-08T09:46:50.681Z,23.03
2022-12-08T09:49:20.570Z,22.97
2022-12-08T09:51:48.186Z,22.79
2022-12-08T09:54:15.492Z,23.35
2022-12-08T09:56:42.868Z,22.88
2022-12-08T09:59:24.149Z,23.02
2022-12-08T10:01:51.709Z,22.96
2022-12-08T10:04:24.806Z,22.97
2022-12-08T10:06:56.440Z,23.54
2022-12-08T10:09:32.651Z,22.81
2022-12-08T10:12:18.983Z,22.96
2022-12-08T10:14:49.995Z,23.09
2022-12-08T10:17:21.163Z,23.45
2022-12-08T10:19:49.591Z,23.15
2022-12-08T10:22:24.819Z,23.22
2022-12-08T10:24:56.018Z,23.23
2022-12-08T10:27:23.690Z,23.24
2022-12-08T10:29:50.970Z,23.36
2022-12-08T10:32:20.417Z,23.37
2022-12-08T10:35:07.908Z,23.13
2022-12-08T10:37:35.676Z,23.13
2022-12-08T10:40:09.236Z,23.51
2022-12-08T10:42:38.971Z,23.15
2022-12-08T10:45:09.707Z,23.21
2022-12-08T10:47:38.344Z,23.24
2022-12-08T10:50:22.741Z,23.49
2022-12-08T10:53:08.285Z,23.05
2022-12-08T10:55:44.337Z,23.11
2022-12-08T10:58:24.074Z,22.99
2022-12-08T11:00:55.958Z,23.18
2022-12-08T11:03:43.613Z,23.20
2022-12-08T11:06:14.824Z,23.01
2022-12-08T11:09:01.768Z,23.28
2022-12-08T11:11:54.759Z,23.30
2022-12-08T11:14:32.677Z,23.18
2022-12-08T11:17:20.011Z,23.45
2022-12-08T11:20:01.047Z,23.10
2022-12-08T11:22:37.905Z,23.22
2022-12-08T11:25:08.050Z,23.03
2022-12-08T11:27:36.864Z,23.14
2022-12-08T11:30:12.615Z,22.97
2022-12-08T11:33:06.498Z,23.43
2022-12-08T11:35:35.557Z,23.53
2022-12-08T11:38:20.538Z,23.17
2022-12-08T11:41:15.829Z,23.13
2022-12-08T11:43:56.133Z,23.03
2022-12-08T11:46:32.263Z,23.11
2022-12-08T11:49:06.438Z,23.32
2022-12-08T11:51:39.653Z,23.06
2022-12-08T11:54:11.512Z,23.64
2022-12-08T11:57:05.193Z,23.33
2022-12-08T11:59:34.811Z,23.64
2022-12-08T12:02:03.054Z,23.52
2022-12-08T12:04:33.564Z,23.71
2022-12-08T12:07:26.499Z,23.46
2022-12-08T12:10:09.378Z,23.52
2022-12-08T12:12:51.960Z,23.84
2022-12-08T12:15:22.028Z,23.78
2022-12-08T12:17:52.044Z,23.48
2022-12-08T12:20:25.346Z,23.28
2022-12-08T12:22:56.815Z,23.35
2022-12-08T12:25:25.899Z,23.53
2022-12-08T12:27:57.897Z,23.23
2022-12-08T12:30:26.698Z,23.77
2022-12-08T12:32:57.045Z,23.02
2022-12-08T12:35:38.493Z,23.03
2022-12-08T12:38:27.959Z,23.11
2022-12-08T12:41:00.437Z,23.53
2022-12-08T12:43:32.697Z,22.78
2022-12-08T12:46:18.417Z,22.76
2022-12-08T12:48:45.842Z,22.84
2022-12-08T12:51:32.115Z,22.33
2022-12-08T12:54:19.373Z,22.75
2022-12-08T12:56:48.407Z,23.48
2022-12-08T12:59:44.505Z,22.56
2022-12-08T13:02:20.521Z,23.26
2022-12-08T13:04:57.076Z,22.78
2022-12-08T13:07:26.822Z,22.78
2022-12-08T13:10:11.229Z,22.74
2022-12-08T13:12:38.702Z,23.03
2022-12-08T13:15:07.147Z,22.58
2022-12-08T13:17:37.044Z,22.78
2022-12-08T13:20:06.589Z,22.70
2022-12-08T13:22:52.767Z,22.76
2022-12-08T13:25:39.059Z,23.12
2022-12-08T13:28:15.546Z,22.82
2022-12-08T13:30:45.763Z,22.92
2022-12-08T13:33:19.096Z,22.81
2022-12-08T13:36:09.962Z,22.80
2022-12-08T13:38:38.830Z,22.72
2022-12-08T13:41:13.746Z,22.94
2022-12-08T13:43:57.795Z,22.83
2022-12-08T13:58:50.010Z,22.40
2022-12-08T14:01:20.201Z,22.68
2022-12-08T14:04:20.487Z,22.42
2022-12-08T14:06:39.198Z,22.33
2022-12-08T14:09:11.217Z,22.40
2022-12-08T14:11:44.743Z,22.75
2022-12-08T14:14:27.227Z,22.71
2022-12-08T14:17:10.017Z,22.97
2022-12-08T14:19:37.541Z,22.93
2022-12-08T14:22:11.976Z,22.99
2022-12-08T14:24:40.596Z,22.70
2022-12-08T14:27:10.954Z,22.73
2022-12-08T14:29:55.418Z,22.85
2022-12-08T14:32:24.733Z,22.46
2022-12-08T14:35:11.767Z,22.62
2022-12-08T14:37:43.292Z,22.61
2022-12-08T14:40:22.984Z,22.60
2022-12-08T14:43:05.169Z,22.61
2022-12-08T14:45:35.338Z,22.96
2022-12-08T14:48:20.942Z,23.01
2022-12-08T14:50:57.159Z,23.14
2022-12-08T14:53:25.118Z,23.21
2022-12-08T14:55:52.517Z,22.82
2022-12-08T14:58:27.924Z,22.61
2022-12-08T15:00:58.537Z,22.81
2022-12-08T15:03:30.314Z,22.77
2022-12-08T15:06:04.905Z,23.11
2022-12-08T15:08:32.356Z,22.93
2022-12-08T15:11:25.051Z,23.23
2022-12-08T15:13:53.107Z,23.34
2022-12-08T15:16:27.158Z,23.02
2022-12-08T15:19:16.276Z,22.85
2022-12-08T15:22:09.828Z,23.29
2022-12-08T15:24:40.291Z,23.07
2022-12-08T15:27:07.643Z,22.84
2022-12-08T15:29:35.024Z,23.11
2022-12-08T15:32:02.686Z,23.09
2022-12-08T15:34:31.651Z,23.13
2022-12-08T15:36:59.005Z,22.57
2022-12-08T15:39:33.200Z,22.30
2022-12-08T15:42:01.409Z,22.97
2022-12-08T15:44:32.997Z,22.82
2022-12-08T15:47:00.548Z,22.87
2022-12-08T15:49:27.999Z,22.55
2022-12-08T15:52:04.957Z,22.64
2022-12-08T15:54:37.835Z,22.44
2022-12-08T15:57:25.043Z,22.69
2022-12-08T15:59:52.928Z,22.58
2022-12-08T16:02:22.896Z,22.77
2022-12-08T16:07:38.504Z,22.92
2022-12-08T16:10:07.490Z,22.88
2022-12-08T16:15:59.025Z,22.51
2022-12-08T16:18:31.768Z,22.95
2022-12-08T16:23:46.632Z,22.53
2022-12-08T16:29:06.600Z,22.35
2022-12-08T16:31:33.992Z,22.52
2022-12-08T16:34:01.468Z,22.40
2022-12-08T16:36:28.752Z,22.55
2022-12-08T16:38:56.144Z,22.23
2022-12-08T16:41:41.724Z,22.10
2022-12-08T16:44:09.135Z,22.74
2022-12-08T16:46:37.172Z,22.47
2022-12-08T16:49:07.838Z,22.54
2022-12-08T16:51:35.280Z,22.30
2022-12-08T16:54:02.560Z,22.46
2022-12-08T16:56:33.376Z,23.02
2022-12-08T16:59:02.140Z,22.62
2022-12-08T17:01:29.993Z,22.53
2022-12-08T17:06:45.090Z,22.19
2022-12-08T17:09:12.390Z,22.31
2022-12-08T17:11:43.428Z,22.47
2022-12-08T17:14:12.031Z,22.17
2022-12-08T17:16:39.540Z,22.38
2022-12-08T17:19:06.926Z,22.78
2022-12-08T17:21:34.184Z,22.39
2022-12-08T17:24:01.741Z,22.07
2022-12-08T17:26:29.009Z,22.58
2022-12-08T17:29:01.018Z,22.36
2022-12-08T17:31:31.522Z,22.30
2022-12-08T17:34:03.305Z,22.13
2022-12-08T17:36:30.685Z,22.20
2022-12-08T17:38:59.156Z,22.61
2022-12-08T17:41:26.560Z,22.72
2022-12-08T17:43:53.859Z,22.51
2022-12-08T17:46:21.859Z,22.59
2022-12-08T17:48:49.425Z,22.38
2022-12-08T17:51:17.311Z,22.47
2022-12-08T17:53:44.741Z,22.41
2022-12-08T17:56:17.925Z,22.39
2022-12-08T17:58:47.549Z,22.30
2022-12-08T18:01:18.817Z,22.81
2022-12-08T18:03:46.134Z,22.08
2022-12-08T18:06:13.599Z,22.21
2022-12-08T18:08:41.227Z,22.24
2022-12-08T18:11:13.535Z,22.09
2022-12-08T18:13:41.124Z,22.32
2022-12-08T18:16:08.457Z,22.40
2022-12-08T18:18:35.744Z,22.25
2022-12-08T18:21:03.019Z,21.55
2022-12-08T18:23:55.660Z,21.83
2022-12-08T18:26:23.263Z,22.34
2022-12-08T18:28:50.639Z,22.08
2022-12-08T18:31:19.933Z,22.09
2022-12-08T18:33:47.833Z,22.62
2022-12-08T18:36:16.673Z,22.52
2022-12-08T18:38:44.114Z,22.12
2022-12-08T18:41:13.070Z,22.28
2022-12-08T18:43:40.786Z,22.17
2022-12-08T18:46:09.785Z,22.05
2022-12-08T18:48:38.489Z,21.84
2022-12-08T18:51:10.618Z,21.37
2022-12-08T18:53:38.868Z,22.25
2022-12-08T18:56:07.023Z,21.66
2022-12-08T18:58:34.471Z,22.44
2022-12-08T19:01:01.857Z,21.65
2022-12-08T19:03:29.496Z,21.79
2022-12-08T19:06:04.142Z,21.63
2022-12-08T19:08:31.915Z,21.83
2022-12-08T19:10:59.580Z,22.43
2022-12-08T19:13:27.477Z,22.01
2022-12-08T19:15:54.779Z,21.85
2022-12-08T19:18:22.557Z,21.77
2022-12-08T19:20:50.025Z,21.88
2022-12-08T19:23:17.390Z,21.30
2022-12-08T19:25:44.663Z,21.80
2022-12-08T19:28:12.131Z,21.59
2022-12-08T19:30:39.532Z,21.65
2022-12-08T19:33:06.991Z,21.24
2022-12-08T19:35:34.283Z,21.50
2022-12-08T19:38:01.651Z,21.52
2022-12-08T19:40:47.674Z,21.52
2022-12-08T19:43:37.910Z,21.80
2022-12-08T19:46:05.486Z,21.04
2022-12-08T19:48:32.806Z,21.54
2022-12-08T19:51:00.267Z,21.52
2022-12-08T19:53:27.721Z,21.01
2022-12-08T19:55:55.201Z,21.29
2022-12-08T19:58:22.463Z,21.41
2022-12-08T20:01:15.904Z,21.67
2022-12-08T20:03:43.313Z,21.63
2022-12-08T20:06:36.427Z,21.53
2022-12-08T20:09:03.885Z,21.88
2022-12-08T20:11:31.113Z,21.85
2022-12-08T20:14:00.421Z,21.31
2022-12-08T20:16:27.814Z,21.94
2022-12-08T20:18:55.122Z,22.17
2022-12-08T20:21:22.546Z,21.90
2022-12-08T20:23:49.992Z,21.19
2022-12-08T20:26:18.903Z,21.96
2022-12-08T20:28:46.308Z,21.76
2022-12-08T20:31:20.827Z,21.46
2022-12-08T20:33:48.846Z,21.91
2022-12-08T20:36:19.984Z,21.94
2022-12-08T20:38:48.259Z,21.41
2022-12-08T20:41:16.224Z,21.41
2022-12-08T20:43:44.553Z,22.17
2022-12-08T20:46:13.311Z,21.67
2022-12-08T20:48:41.017Z,21.47
2022-12-08T20:51:08.691Z,21.52
2022-12-08T20:53:36.295Z,21.50
2022-12-08T20:56:28.832Z,21.55
2022-12-08T20:58:56.316Z,21.34
2022-12-08T21:01:39.280Z,21.66
2022-12-08T21:04:06.887Z,21.30
2022-12-08T21:06:34.465Z,21.54
2022-12-08T21:09:01.880Z,21.75
2022-12-08T21:11:29.513Z,21.47
2022-12-08T21:13:57.018Z,21.73
2022-12-08T21:16:24.313Z,21.76
2022-12-08T21:18:51.971Z,21.68
2022-12-08T21:21:19.392Z,21.66
2022-12-08T21:23:46.941Z,21.59
2022-12-08T21:26:21.713Z,21.11
2022-12-08T21:28:49.190Z,21.52
2022-12-08T21:31:19.116Z,21.49
2022-12-08T21:33:46.784Z,21.58
2022-12-08T21:36:16.199Z,21.80
2022-12-08T21:38:44.011Z,21.37
2022-12-08T21:41:13.550Z,20.96
2022-12-08T21:43:41.450Z,20.97
2022-12-08T21:46:16.834Z,21.04
2022-12-08T21:48:44.648Z,21.19
2022-12-08T21:51:12.924Z,21.41
2022-12-08T21:53:40.473Z,21.40
2022-12-08T21:56:08.777Z,21.56
2022-12-08T21:58:36.339Z,21.81
2022-12-08T22:01:07.397Z,21.87
2022-12-08T22:03:35.137Z,21.63
2022-12-08T22:06:10.148Z,21.53
2022-12-08T22:08:37.877Z,21.84
2022-12-08T22:11:05.593Z,21.40
2022-12-08T22:13:34.308Z,21.41
2022-12-08T22:16:03.606Z,21.40
2022-12-08T22:18:31.349Z,21.92
2022-12-08T22:20:58.835Z,21.84
2022-12-08T22:23:26.481Z,21.71
2022-12-08T22:26:00.490Z,22.20
2022-12-08T22:28:30.091Z,21.56
2022-12-08T22:30:57.467Z,21.57
2022-12-08T22:33:24.832Z,21.76
2022-12-08T22:36:04.705Z,21.85
2022-12-08T22:38:35.678Z,22.09
2022-12-08T22:41:04.891Z,21.98
2022-12-08T22:43:33.040Z,21.70
2022-12-08T22:46:00.755Z,21.89
2022-12-08T22:48:28.207Z,21.61
2022-12-08T22:51:02.070Z,21.42
2022-12-08T22:53:29.483Z,21.64
2022-12-08T22:55:56.891Z,21.58
2022-12-08T22:58:24.331Z,21.71
2022-12-08T23:00:52.173Z,21.87
2022-12-08T23:03:19.669Z,21.81
2022-12-08T23:05:47.257Z,21.91
2022-12-08T23:08:16.512Z,21.83
2022-12-08T23:10:44.731Z,21.67
2022-12-08T23:13:18.162Z,22.12
2022-12-08T23:15:45.652Z,22.15
2022-12-08T23:18:15.829Z,21.83
2022-12-08T23:20:43.240Z,22.11
2022-12-08T23:23:10.562Z,22.02
2022-12-08T23:25:41.679Z,22.01
2022-12-08T23:28:09.821Z,21.73
2022-12-08T23:30:40.004Z,22.02
2022-12-08T23:33:07.478Z,22.04
2022-12-08T23:35:34.924Z,22.23
2022-12-08T23:38:02.500Z,21.70
2022-12-08T23:40:29.954Z,21.45
2022-12-08T23:42:57.738Z,21.56
2022-12-08T23:45:25.180Z,22.04
2022-12-08T23:47:52.708Z,22.21
2022-12-08T23:50:20.189Z,21.38
2022-12-08T23:52:47.754Z,21.95
2022-12-08T23:55:15.114Z,21.74
2022-12-08T23:57:42.517Z,21.09
